EZY26YM EGKK-LPPT
Flight info
| Callsign | EZY26YM |
|---|---|
| Flight time | 2h 25m |
| Altitude | 35000 |
| Route | NOVMA L620 SAM M195 LORKU DCT POZOF DCT BALDA DCT ABUPI DCT XAMAX |
| Aircraft | A21N/M-SDE2E3FGHIJ1RWXY/LB1 |
Departure
| Time | 2026-04-15 07:33 |
|---|---|
| Airport | London Gatwick Airport (EGKK) |
Arrival
| Time | 2026-04-15 09:59 |
|---|---|
| Airport | Lisbon Humberto Delgado Airport (LPPT) |
| Time | Latitude | Longitude | Altitude | Speed | Heading |
|---|---|---|---|---|---|
| 2026-04-15 06:38 | 51.16062 | -0.18033 | 209 ft | 0 kts | 77° |
| 2026-04-15 07:21 | 51.16061 | -0.18040 | 209 ft | 0 kts | 77° |
| 2026-04-15 07:21 | 51.16056 | -0.18082 | 216 ft | 4 kts | 77° |
| 2026-04-15 07:21 | 51.16050 | -0.18123 | 217 ft | 0 kts | 85° |
| 2026-04-15 07:22 | 51.16055 | -0.18151 | 215 ft | 0 kts | 157° |
| 2026-04-15 07:22 | 51.16075 | -0.18159 | 209 ft | 4 kts | 167° |
| 2026-04-15 07:22 | 51.16086 | -0.18163 | 209 ft | 0 kts | 167° |
| 2026-04-15 07:25 | 51.16084 | -0.18162 | 209 ft | 1 kts | 168° |
| 2026-04-15 07:25 | 51.16063 | -0.18155 | 218 ft | 5 kts | 167° |
| 2026-04-15 07:25 | 51.16022 | -0.18141 | 209 ft | 7 kts | 167° |
| 2026-04-15 07:25 | 51.15965 | -0.18121 | 212 ft | 9 kts | 168° |
| 2026-04-15 07:26 | 51.15902 | -0.18099 | 209 ft | 10 kts | 168° |
| 2026-04-15 07:26 | 51.15833 | -0.18075 | 209 ft | 11 kts | 168° |
| 2026-04-15 07:26 | 51.15755 | -0.18048 | 209 ft | 12 kts | 168° |
| 2026-04-15 07:26 | 51.15699 | -0.17995 | 216 ft | 10 kts | 102° |
| 2026-04-15 07:27 | 51.15710 | -0.17877 | 209 ft | 12 kts | 77° |
| 2026-04-15 07:27 | 51.15728 | -0.17746 | 209 ft | 13 kts | 78° |
| 2026-04-15 07:27 | 51.15747 | -0.17609 | 209 ft | 10 kts | 77° |
| 2026-04-15 07:27 | 51.15734 | -0.17509 | 218 ft | 11 kts | 147° |
| 2026-04-15 07:28 | 51.15659 | -0.17477 | 209 ft | 12 kts | 168° |
| 2026-04-15 07:28 | 51.15582 | -0.17451 | 213 ft | 12 kts | 167° |
| 2026-04-15 07:28 | 51.15498 | -0.17421 | 209 ft | 13 kts | 167° |
| 2026-04-15 07:28 | 51.15408 | -0.17389 | 213 ft | 14 kts | 168° |
| 2026-04-15 07:29 | 51.15314 | -0.17357 | 217 ft | 11 kts | 168° |
| 2026-04-15 07:29 | 51.15239 | -0.17308 | 209 ft | 12 kts | 145° |
| 2026-04-15 07:29 | 51.15182 | -0.17222 | 209 ft | 10 kts | 105° |
| 2026-04-15 07:29 | 51.15193 | -0.17101 | 213 ft | 12 kts | 77° |
| 2026-04-15 07:30 | 51.15211 | -0.16969 | 209 ft | 12 kts | 77° |
| 2026-04-15 07:30 | 51.15217 | -0.16928 | 209 ft | 0 kts | 77° |
| 2026-04-15 07:31 | 51.15218 | -0.16921 | 215 ft | 2 kts | 77° |
| 2026-04-15 07:31 | 51.15222 | -0.16887 | 209 ft | 5 kts | 86° |
| 2026-04-15 07:31 | 51.15212 | -0.16825 | 214 ft | 7 kts | 124° |
| 2026-04-15 07:32 | 51.15168 | -0.16788 | 208 ft | 8 kts | 172° |
| 2026-04-15 07:32 | 51.15122 | -0.16825 | 209 ft | 9 kts | 242° |
| 2026-04-15 07:32 | 51.15104 | -0.16924 | 216 ft | 10 kts | 256° |
| 2026-04-15 07:32 | 51.15070 | -0.17173 | 211 ft | 52 kts | 258° |
| 2026-04-15 07:33 | 51.14939 | -0.18119 | 217 ft | 118 kts | 257° |
| 2026-04-15 07:33 | 51.14725 | -0.19674 | 244 ft | 162 kts | 254° |
| 2026-04-15 07:33 | 51.14485 | -0.21406 | 739 ft | 163 kts | 254° |
| 2026-04-15 07:33 | 51.14234 | -0.23211 | 1309 ft | 171 kts | 253° |
| 2026-04-15 07:34 | 51.13963 | -0.25143 | 1765 ft | 185 kts | 252° |
| 2026-04-15 07:34 | 51.13677 | -0.27205 | 2288 ft | 196 kts | 253° |
| 2026-04-15 07:34 | 51.13376 | -0.29381 | 2790 ft | 211 kts | 254° |
| 2026-04-15 07:34 | 51.13049 | -0.31745 | 3306 ft | 227 kts | 254° |
| 2026-04-15 07:35 | 51.12687 | -0.34343 | 3809 ft | 247 kts | 254° |
| 2026-04-15 07:35 | 51.12314 | -0.37014 | 4602 ft | 252 kts | 255° |
| 2026-04-15 07:35 | 51.11935 | -0.39747 | 5468 ft | 254 kts | 255° |
| 2026-04-15 07:35 | 51.11534 | -0.42492 | 6303 ft | 255 kts | 251° |
| 2026-04-15 07:36 | 51.10862 | -0.45098 | 7071 ft | 256 kts | 242° |
| 2026-04-15 07:36 | 51.10062 | -0.47641 | 7865 ft | 259 kts | 240° |
| 2026-04-15 07:36 | 51.09247 | -0.50209 | 8668 ft | 261 kts | 240° |
| 2026-04-15 07:36 | 51.08428 | -0.52803 | 9491 ft | 264 kts | 240° |
| 2026-04-15 07:37 | 51.07604 | -0.55428 | 10274 ft | 266 kts | 240° |
| 2026-04-15 07:37 | 51.06775 | -0.58072 | 11000 ft | 269 kts | 240° |
| 2026-04-15 07:37 | 51.05938 | -0.60747 | 11756 ft | 272 kts | 241° |
| 2026-04-15 07:37 | 51.05227 | -0.63551 | 12496 ft | 277 kts | 251° |
| 2026-04-15 07:38 | 51.04791 | -0.66557 | 13252 ft | 281 kts | 255° |
| 2026-04-15 07:38 | 51.04399 | -0.69605 | 13993 ft | 283 kts | 256° |
| 2026-04-15 07:38 | 51.03999 | -0.72688 | 14671 ft | 286 kts | 255° |
| 2026-04-15 07:38 | 51.03589 | -0.75800 | 15325 ft | 290 kts | 255° |
| 2026-04-15 07:39 | 51.03162 | -0.78997 | 15705 ft | 303 kts | 255° |
| 2026-04-15 07:39 | 51.02708 | -0.82358 | 15974 ft | 319 kts | 255° |
| 2026-04-15 07:39 | 51.02235 | -0.85851 | 16473 ft | 326 kts | 255° |
| 2026-04-15 07:39 | 51.01756 | -0.89394 | 17060 ft | 331 kts | 255° |
| 2026-04-15 07:40 | 51.01268 | -0.92984 | 17696 ft | 334 kts | 254° |
| 2026-04-15 07:40 | 51.00942 | -0.95378 | 18133 ft | 336 kts | 254° |
| 2026-04-15 07:40 | 51.00444 | -0.99012 | 18738 ft | 338 kts | 253° |
| 2026-04-15 07:40 | 50.99941 | -1.02665 | 19287 ft | 340 kts | 253° |
| 2026-04-15 07:41 | 50.99436 | -1.06338 | 19826 ft | 342 kts | 253° |
| 2026-04-15 07:41 | 50.98925 | -1.10044 | 20360 ft | 345 kts | 253° |
| 2026-04-15 07:41 | 50.98411 | -1.13773 | 20876 ft | 347 kts | 253° |
| 2026-04-15 07:41 | 50.97893 | -1.17522 | 21398 ft | 350 kts | 253° |
| 2026-04-15 07:42 | 50.97366 | -1.21303 | 21912 ft | 352 kts | 253° |
| 2026-04-15 07:42 | 50.96834 | -1.25112 | 22421 ft | 355 kts | 253° |
| 2026-04-15 07:42 | 50.96288 | -1.28936 | 22924 ft | 356 kts | 252° |
| 2026-04-15 07:42 | 50.95445 | -1.32610 | 23402 ft | 354 kts | 239° |
| 2026-04-15 07:43 | 50.94031 | -1.35781 | 23825 ft | 353 kts | 225° |
| 2026-04-15 07:43 | 50.92135 | -1.38241 | 24211 ft | 354 kts | 214° |
| 2026-04-15 07:43 | 50.90063 | -1.40369 | 24618 ft | 356 kts | 213° |
| 2026-04-15 07:43 | 50.87974 | -1.42471 | 25081 ft | 356 kts | 212° |
| 2026-04-15 07:44 | 50.85893 | -1.44590 | 25510 ft | 356 kts | 213° |
| 2026-04-15 07:44 | 50.83813 | -1.46727 | 25902 ft | 357 kts | 213° |
| 2026-04-15 07:44 | 50.81728 | -1.48879 | 26287 ft | 358 kts | 213° |
| 2026-04-15 07:44 | 50.79637 | -1.51043 | 26651 ft | 360 kts | 213° |
| 2026-04-15 07:45 | 50.77540 | -1.53213 | 27012 ft | 361 kts | 213° |
| 2026-04-15 07:45 | 50.75434 | -1.55392 | 27361 ft | 363 kts | 213° |
| 2026-04-15 07:45 | 50.73318 | -1.57577 | 27696 ft | 364 kts | 213° |
| 2026-04-15 07:45 | 50.71197 | -1.59766 | 28024 ft | 365 kts | 213° |
| 2026-04-15 07:46 | 50.69067 | -1.61961 | 28345 ft | 366 kts | 213° |
| 2026-04-15 07:46 | 50.66927 | -1.64163 | 28666 ft | 368 kts | 213° |
| 2026-04-15 07:46 | 50.64780 | -1.66372 | 28977 ft | 369 kts | 213° |
| 2026-04-15 07:46 | 50.62623 | -1.68586 | 29277 ft | 370 kts | 213° |
| 2026-04-15 07:47 | 50.60461 | -1.70806 | 29577 ft | 372 kts | 213° |
| 2026-04-15 07:47 | 50.58290 | -1.73034 | 29860 ft | 373 kts | 213° |
| 2026-04-15 07:47 | 50.56109 | -1.75268 | 30132 ft | 375 kts | 213° |
| 2026-04-15 07:47 | 50.53919 | -1.77508 | 30374 ft | 376 kts | 213° |
| 2026-04-15 07:48 | 50.51722 | -1.79756 | 30603 ft | 378 kts | 213° |
| 2026-04-15 07:48 | 50.49516 | -1.82009 | 30832 ft | 379 kts | 213° |
| 2026-04-15 07:48 | 50.47300 | -1.84264 | 31050 ft | 380 kts | 213° |
| 2026-04-15 07:48 | 50.45079 | -1.86524 | 31347 ft | 380 kts | 212° |
| 2026-04-15 07:49 | 50.42869 | -1.88779 | 31673 ft | 379 kts | 212° |
| 2026-04-15 07:49 | 50.40656 | -1.91025 | 31922 ft | 379 kts | 213° |
| 2026-04-15 07:49 | 50.38437 | -1.93276 | 32117 ft | 381 kts | 213° |
| 2026-04-15 07:49 | 50.36209 | -1.95537 | 32323 ft | 382 kts | 213° |
| 2026-04-15 07:50 | 50.33970 | -1.97805 | 32515 ft | 384 kts | 213° |
| 2026-04-15 07:50 | 50.31724 | -2.00076 | 32721 ft | 385 kts | 213° |
| 2026-04-15 07:50 | 50.29472 | -2.02351 | 32983 ft | 385 kts | 213° |
| 2026-04-15 07:50 | 50.27223 | -2.04618 | 33232 ft | 384 kts | 213° |
| 2026-04-15 07:51 | 50.24979 | -2.06880 | 33478 ft | 383 kts | 213° |
| 2026-04-15 07:51 | 50.22736 | -2.09114 | 33713 ft | 383 kts | 212° |
| 2026-04-15 07:51 | 50.20477 | -2.11313 | 33946 ft | 382 kts | 212° |
| 2026-04-15 07:51 | 50.18221 | -2.13503 | 34148 ft | 382 kts | 212° |
| 2026-04-15 07:52 | 50.15972 | -2.15687 | 34296 ft | 381 kts | 212° |
| 2026-04-15 07:52 | 50.13717 | -2.17874 | 34449 ft | 381 kts | 212° |
| 2026-04-15 07:52 | 50.11464 | -2.20060 | 34620 ft | 381 kts | 212° |
| 2026-04-15 07:52 | 50.09215 | -2.22239 | 34781 ft | 381 kts | 212° |
| 2026-04-15 07:53 | 50.06966 | -2.24422 | 34943 ft | 381 kts | 212° |
| 2026-04-15 07:53 | 50.04719 | -2.26600 | 35079 ft | 381 kts | 212° |
| 2026-04-15 07:53 | 50.00205 | -2.30964 | 35114 ft | 381 kts | 212° |
| 2026-04-15 07:54 | 49.95703 | -2.35308 | 35087 ft | 381 kts | 212° |
| 2026-04-15 07:54 | 49.91009 | -2.39137 | 35074 ft | 382 kts | 205° |
| 2026-04-15 07:55 | 49.86155 | -2.42506 | 35078 ft | 382 kts | 205° |
| 2026-04-15 07:56 | 49.78881 | -2.47564 | 35083 ft | 382 kts | 205° |
| 2026-04-15 07:56 | 49.74034 | -2.50937 | 35084 ft | 382 kts | 205° |
| 2026-04-15 07:57 | 49.69177 | -2.54309 | 35065 ft | 384 kts | 205° |
| 2026-04-15 07:57 | 49.64309 | -2.57682 | 35081 ft | 383 kts | 205° |
| 2026-04-15 07:58 | 49.59450 | -2.61041 | 35082 ft | 383 kts | 205° |
| 2026-04-15 07:58 | 49.54590 | -2.64395 | 35080 ft | 383 kts | 205° |
| 2026-04-15 07:59 | 49.49728 | -2.67738 | 35084 ft | 382 kts | 205° |
| 2026-04-15 07:59 | 49.44876 | -2.71068 | 35093 ft | 380 kts | 206° |
| 2026-04-15 08:00 | 49.40042 | -2.74378 | 35088 ft | 380 kts | 206° |
| 2026-04-15 08:00 | 49.35209 | -2.77681 | 35087 ft | 380 kts | 206° |
| 2026-04-15 08:01 | 49.30375 | -2.80977 | 35089 ft | 380 kts | 206° |
| 2026-04-15 08:01 | 49.25536 | -2.84276 | 35070 ft | 380 kts | 206° |
| 2026-04-15 08:02 | 49.20700 | -2.87562 | 35086 ft | 381 kts | 206° |
| 2026-04-15 08:02 | 49.15867 | -2.90835 | 35088 ft | 380 kts | 206° |
| 2026-04-15 08:03 | 49.11035 | -2.94104 | 35099 ft | 380 kts | 206° |
| 2026-04-15 08:03 | 49.06201 | -2.97366 | 35097 ft | 380 kts | 206° |
| 2026-04-15 08:04 | 49.01365 | -3.00624 | 35089 ft | 379 kts | 206° |
| 2026-04-15 08:04 | 48.96532 | -3.03874 | 35092 ft | 380 kts | 206° |
| 2026-04-15 08:05 | 48.91704 | -3.07111 | 35145 ft | 380 kts | 206° |
| 2026-04-15 08:05 | 48.86862 | -3.10352 | 35103 ft | 381 kts | 206° |
| 2026-04-15 08:06 | 48.82010 | -3.13592 | 35092 ft | 381 kts | 206° |
| 2026-04-15 08:06 | 48.77152 | -3.16826 | 35085 ft | 381 kts | 206° |
| 2026-04-15 08:07 | 48.72297 | -3.20058 | 35083 ft | 381 kts | 206° |
| 2026-04-15 08:07 | 48.67440 | -3.23281 | 35087 ft | 381 kts | 206° |
| 2026-04-15 08:08 | 48.62581 | -3.26498 | 35089 ft | 381 kts | 206° |
| 2026-04-15 08:08 | 48.57722 | -3.29709 | 35068 ft | 381 kts | 206° |
| 2026-04-15 08:09 | 48.52866 | -3.32912 | 35085 ft | 381 kts | 206° |
| 2026-04-15 08:09 | 48.48014 | -3.36103 | 35098 ft | 381 kts | 206° |
| 2026-04-15 08:10 | 48.43160 | -3.39290 | 35096 ft | 380 kts | 206° |
| 2026-04-15 08:10 | 48.38303 | -3.42474 | 35068 ft | 381 kts | 206° |
| 2026-04-15 08:11 | 48.33426 | -3.45660 | 35121 ft | 384 kts | 206° |
| 2026-04-15 08:11 | 48.28523 | -3.48861 | 35104 ft | 384 kts | 206° |
| 2026-04-15 08:12 | 48.23617 | -3.52053 | 35112 ft | 384 kts | 206° |
| 2026-04-15 08:12 | 48.18708 | -3.55243 | 35108 ft | 384 kts | 206° |
| 2026-04-15 08:13 | 48.13801 | -3.58426 | 35101 ft | 383 kts | 206° |
| 2026-04-15 08:13 | 48.08900 | -3.61595 | 35101 ft | 383 kts | 206° |
| 2026-04-15 08:14 | 48.04003 | -3.64758 | 35116 ft | 384 kts | 206° |
| 2026-04-15 08:14 | 47.99132 | -3.67893 | 35123 ft | 383 kts | 206° |
| 2026-04-15 08:15 | 47.94233 | -3.71047 | 35100 ft | 384 kts | 206° |
| 2026-04-15 08:15 | 47.89340 | -3.74188 | 35119 ft | 383 kts | 206° |
| 2026-04-15 08:16 | 47.84445 | -3.77322 | 35124 ft | 383 kts | 206° |
| 2026-04-15 08:16 | 47.79553 | -3.80449 | 35172 ft | 383 kts | 206° |
| 2026-04-15 08:17 | 47.74660 | -3.83569 | 35139 ft | 382 kts | 206° |
| 2026-04-15 08:17 | 47.69768 | -3.86682 | 35129 ft | 382 kts | 206° |
| 2026-04-15 08:18 | 47.64878 | -3.89787 | 35139 ft | 382 kts | 206° |
| 2026-04-15 08:18 | 47.59992 | -3.92884 | 35140 ft | 382 kts | 206° |
| 2026-04-15 08:19 | 47.55105 | -3.95976 | 35143 ft | 382 kts | 206° |
| 2026-04-15 08:19 | 47.50214 | -3.99064 | 35124 ft | 382 kts | 207° |
| 2026-04-15 08:20 | 47.45297 | -4.02161 | 35136 ft | 382 kts | 207° |
| 2026-04-15 08:20 | 47.40448 | -4.05209 | 35140 ft | 382 kts | 207° |
| 2026-04-15 08:21 | 47.35534 | -4.08294 | 35144 ft | 381 kts | 207° |
| 2026-04-15 08:21 | 47.30680 | -4.11333 | 35118 ft | 381 kts | 207° |
| 2026-04-15 08:22 | 47.26588 | -4.13889 | 35146 ft | 381 kts | 207° |
| 2026-04-15 08:22 | 47.21708 | -4.16935 | 35158 ft | 382 kts | 207° |
| 2026-04-15 08:23 | 47.16817 | -4.19982 | 35153 ft | 382 kts | 207° |
| 2026-04-15 08:23 | 47.11918 | -4.23026 | 35157 ft | 382 kts | 207° |
| 2026-04-15 08:24 | 47.07018 | -4.26059 | 35142 ft | 381 kts | 207° |
| 2026-04-15 08:24 | 47.02054 | -4.28857 | 35162 ft | 382 kts | 205° |
| 2026-04-15 08:25 | 46.97071 | -4.31584 | 35168 ft | 382 kts | 205° |
| 2026-04-15 08:25 | 46.92087 | -4.34316 | 35167 ft | 382 kts | 205° |
| 2026-04-15 08:26 | 46.87108 | -4.37039 | 35159 ft | 382 kts | 205° |
| 2026-04-15 08:26 | 46.82129 | -4.39755 | 35169 ft | 382 kts | 205° |
| 2026-04-15 08:27 | 46.77154 | -4.42465 | 35169 ft | 382 kts | 205° |
| 2026-04-15 08:27 | 46.72177 | -4.45173 | 35164 ft | 382 kts | 205° |
| 2026-04-15 08:28 | 46.67196 | -4.47874 | 35171 ft | 382 kts | 205° |
| 2026-04-15 08:28 | 46.62216 | -4.50573 | 35172 ft | 382 kts | 205° |
| 2026-04-15 08:29 | 46.57236 | -4.53262 | 35164 ft | 381 kts | 205° |
| 2026-04-15 08:29 | 46.52263 | -4.55944 | 35171 ft | 381 kts | 205° |
| 2026-04-15 08:30 | 46.47289 | -4.58622 | 35158 ft | 381 kts | 205° |
| 2026-04-15 08:30 | 46.42316 | -4.61294 | 35177 ft | 381 kts | 205° |
| 2026-04-15 08:31 | 46.37349 | -4.63956 | 35182 ft | 381 kts | 205° |
| 2026-04-15 08:31 | 46.32374 | -4.66618 | 35182 ft | 381 kts | 205° |
| 2026-04-15 08:32 | 46.27402 | -4.69275 | 35182 ft | 381 kts | 205° |
| 2026-04-15 08:32 | 46.22429 | -4.71926 | 35176 ft | 380 kts | 205° |
| 2026-04-15 08:33 | 46.17461 | -4.74570 | 35184 ft | 380 kts | 205° |
| 2026-04-15 08:33 | 46.12492 | -4.77208 | 35191 ft | 380 kts | 205° |
| 2026-04-15 08:34 | 46.07515 | -4.79847 | 35196 ft | 382 kts | 205° |
| 2026-04-15 08:34 | 46.02532 | -4.82483 | 35185 ft | 381 kts | 205° |
| 2026-04-15 08:35 | 45.97554 | -4.85110 | 35195 ft | 381 kts | 205° |
| 2026-04-15 08:35 | 45.92574 | -4.87736 | 35194 ft | 381 kts | 205° |
| 2026-04-15 08:36 | 45.87595 | -4.90354 | 35197 ft | 381 kts | 205° |
| 2026-04-15 08:36 | 45.82611 | -4.92971 | 35183 ft | 381 kts | 206° |
| 2026-04-15 08:37 | 45.77636 | -4.95577 | 35197 ft | 381 kts | 206° |
| 2026-04-15 08:37 | 45.72658 | -4.98179 | 35206 ft | 381 kts | 206° |
| 2026-04-15 08:38 | 45.67682 | -5.00784 | 35209 ft | 381 kts | 206° |
| 2026-04-15 08:38 | 45.62699 | -5.03386 | 35198 ft | 382 kts | 206° |
| 2026-04-15 08:39 | 45.57703 | -5.05982 | 35211 ft | 382 kts | 206° |
| 2026-04-15 08:39 | 45.52711 | -5.08577 | 35225 ft | 381 kts | 206° |
| 2026-04-15 08:40 | 45.47724 | -5.11152 | 35216 ft | 381 kts | 206° |
| 2026-04-15 08:40 | 45.42734 | -5.13729 | 35198 ft | 382 kts | 206° |
| 2026-04-15 08:41 | 45.37738 | -5.16305 | 35214 ft | 382 kts | 206° |
| 2026-04-15 08:41 | 45.32780 | -5.18858 | 35218 ft | 382 kts | 206° |
| 2026-04-15 08:42 | 45.27753 | -5.21446 | 35219 ft | 382 kts | 206° |
| 2026-04-15 08:42 | 45.22754 | -5.24015 | 35214 ft | 383 kts | 206° |
| 2026-04-15 08:43 | 45.17746 | -5.26582 | 35224 ft | 383 kts | 206° |
| 2026-04-15 08:43 | 45.12737 | -5.29143 | 35220 ft | 383 kts | 206° |
| 2026-04-15 08:44 | 45.07728 | -5.31700 | 35229 ft | 383 kts | 205° |
| 2026-04-15 08:44 | 45.02699 | -5.34260 | 35218 ft | 385 kts | 206° |
| 2026-04-15 08:45 | 44.97664 | -5.36822 | 35242 ft | 383 kts | 206° |
| 2026-04-15 08:45 | 44.92692 | -5.39342 | 35235 ft | 382 kts | 206° |
| 2026-04-15 08:46 | 44.87684 | -5.41879 | 35234 ft | 382 kts | 206° |
| 2026-04-15 08:46 | 44.82651 | -5.44420 | 35225 ft | 387 kts | 206° |
| 2026-04-15 08:47 | 44.77606 | -5.46959 | 35229 ft | 385 kts | 206° |
| 2026-04-15 08:47 | 44.72566 | -5.49496 | 35238 ft | 385 kts | 206° |
| 2026-04-15 08:48 | 44.67532 | -5.52033 | 35238 ft | 384 kts | 206° |
| 2026-04-15 08:48 | 44.62493 | -5.54561 | 35231 ft | 384 kts | 206° |
| 2026-04-15 08:49 | 44.57574 | -5.57407 | 35235 ft | 382 kts | 209° |
| 2026-04-15 08:49 | 44.52721 | -5.60427 | 35241 ft | 381 kts | 209° |
| 2026-04-15 08:50 | 44.47866 | -5.63432 | 35242 ft | 382 kts | 209° |
| 2026-04-15 08:50 | 44.42983 | -5.66428 | 35240 ft | 384 kts | 209° |
| 2026-04-15 08:51 | 44.38089 | -5.69423 | 35239 ft | 384 kts | 209° |
| 2026-04-15 08:51 | 44.33205 | -5.72426 | 35256 ft | 383 kts | 209° |
| 2026-04-15 08:52 | 44.28343 | -5.75395 | 35242 ft | 381 kts | 209° |
| 2026-04-15 08:52 | 44.23461 | -5.78385 | 35233 ft | 384 kts | 209° |
| 2026-04-15 08:53 | 44.18575 | -5.81389 | 35244 ft | 384 kts | 209° |
| 2026-04-15 08:53 | 44.13682 | -5.84378 | 35250 ft | 384 kts | 209° |
| 2026-04-15 08:54 | 44.08786 | -5.87358 | 35252 ft | 384 kts | 209° |
| 2026-04-15 08:54 | 44.03883 | -5.90332 | 35247 ft | 385 kts | 209° |
| 2026-04-15 08:55 | 43.98967 | -5.93315 | 35252 ft | 385 kts | 209° |
| 2026-04-15 08:55 | 43.94051 | -5.96285 | 35247 ft | 386 kts | 209° |
| 2026-04-15 08:56 | 43.89137 | -5.99255 | 35242 ft | 385 kts | 209° |
| 2026-04-15 08:56 | 43.84209 | -6.02233 | 35220 ft | 389 kts | 209° |
| 2026-04-15 08:57 | 43.79237 | -6.05223 | 35236 ft | 390 kts | 209° |
| 2026-04-15 08:57 | 43.74264 | -6.08205 | 35228 ft | 390 kts | 209° |
| 2026-04-15 08:58 | 43.69303 | -6.11171 | 35237 ft | 385 kts | 209° |
| 2026-04-15 08:58 | 43.61903 | -6.15604 | 35216 ft | 388 kts | 209° |
| 2026-04-15 08:59 | 43.56946 | -6.18557 | 35248 ft | 388 kts | 209° |
| 2026-04-15 08:59 | 43.51989 | -6.21510 | 35249 ft | 388 kts | 209° |
| 2026-04-15 09:00 | 43.47036 | -6.24452 | 35249 ft | 388 kts | 209° |
| 2026-04-15 09:00 | 43.42054 | -6.27407 | 35232 ft | 392 kts | 209° |
| 2026-04-15 09:01 | 43.37049 | -6.30366 | 35230 ft | 392 kts | 209° |
| 2026-04-15 09:01 | 43.32037 | -6.33335 | 35227 ft | 392 kts | 209° |
| 2026-04-15 09:02 | 43.27027 | -6.36292 | 35224 ft | 392 kts | 209° |
| 2026-04-15 09:02 | 43.22008 | -6.39246 | 35220 ft | 394 kts | 209° |
| 2026-04-15 09:03 | 43.16975 | -6.42213 | 35228 ft | 394 kts | 209° |
| 2026-04-15 09:03 | 43.11928 | -6.45178 | 35229 ft | 395 kts | 209° |
| 2026-04-15 09:04 | 43.07701 | -6.47651 | 35247 ft | 391 kts | 209° |
| 2026-04-15 09:04 | 43.02720 | -6.50583 | 35220 ft | 391 kts | 209° |
| 2026-04-15 09:05 | 42.97694 | -6.53543 | 35240 ft | 393 kts | 209° |
| 2026-04-15 09:05 | 42.92666 | -6.56475 | 35254 ft | 393 kts | 209° |
| 2026-04-15 09:06 | 42.87617 | -6.59415 | 35252 ft | 393 kts | 209° |
| 2026-04-15 09:06 | 42.82595 | -6.62332 | 35231 ft | 392 kts | 209° |
| 2026-04-15 09:07 | 42.77528 | -6.65277 | 35255 ft | 398 kts | 209° |
| 2026-04-15 09:07 | 42.72454 | -6.68214 | 35254 ft | 397 kts | 209° |
| 2026-04-15 09:08 | 42.67376 | -6.71150 | 35265 ft | 396 kts | 209° |
| 2026-04-15 09:08 | 42.62312 | -6.74073 | 35262 ft | 395 kts | 209° |
| 2026-04-15 09:09 | 42.57243 | -6.76996 | 35266 ft | 396 kts | 209° |
| 2026-04-15 09:09 | 42.52209 | -6.79891 | 35262 ft | 396 kts | 209° |
| 2026-04-15 09:10 | 42.47109 | -6.82823 | 35266 ft | 396 kts | 209° |
| 2026-04-15 09:10 | 42.42070 | -6.85706 | 35283 ft | 394 kts | 209° |
| 2026-04-15 09:11 | 42.37028 | -6.88593 | 35262 ft | 394 kts | 209° |
| 2026-04-15 09:11 | 42.31971 | -6.91479 | 35270 ft | 395 kts | 209° |
| 2026-04-15 09:12 | 42.27082 | -6.94737 | 35272 ft | 391 kts | 214° |
| 2026-04-15 09:12 | 42.22293 | -6.98312 | 35253 ft | 391 kts | 214° |
| 2026-04-15 09:13 | 42.17523 | -7.01836 | 35260 ft | 392 kts | 214° |
| 2026-04-15 09:13 | 42.12730 | -7.05358 | 35286 ft | 392 kts | 214° |
| 2026-04-15 09:14 | 42.07931 | -7.08874 | 35284 ft | 395 kts | 214° |
| 2026-04-15 09:14 | 42.03122 | -7.12391 | 35294 ft | 393 kts | 214° |
| 2026-04-15 09:15 | 41.98338 | -7.15921 | 35297 ft | 392 kts | 214° |
| 2026-04-15 09:15 | 41.93565 | -7.19506 | 35294 ft | 395 kts | 214° |
| 2026-04-15 09:16 | 41.88766 | -7.23091 | 35309 ft | 394 kts | 214° |
| 2026-04-15 09:16 | 41.83989 | -7.26659 | 35307 ft | 393 kts | 214° |
| 2026-04-15 09:17 | 41.79240 | -7.30192 | 35315 ft | 393 kts | 214° |
| 2026-04-15 09:17 | 41.74431 | -7.33768 | 35305 ft | 393 kts | 214° |
| 2026-04-15 09:18 | 41.69635 | -7.37326 | 35315 ft | 394 kts | 214° |
| 2026-04-15 09:18 | 41.64838 | -7.40874 | 35315 ft | 394 kts | 214° |
| 2026-04-15 09:19 | 41.60077 | -7.44392 | 35318 ft | 394 kts | 214° |
| 2026-04-15 09:19 | 41.55281 | -7.47927 | 35319 ft | 394 kts | 214° |
| 2026-04-15 09:20 | 41.50474 | -7.51478 | 35305 ft | 397 kts | 214° |
| 2026-04-15 09:20 | 41.45641 | -7.55029 | 35318 ft | 397 kts | 213° |
| 2026-04-15 09:21 | 41.40801 | -7.58579 | 35332 ft | 397 kts | 214° |
| 2026-04-15 09:21 | 41.35972 | -7.62121 | 35333 ft | 395 kts | 214° |
| 2026-04-15 09:22 | 41.31163 | -7.65641 | 35328 ft | 395 kts | 214° |
| 2026-04-15 09:22 | 41.26333 | -7.69166 | 35323 ft | 397 kts | 213° |
| 2026-04-15 09:23 | 41.21495 | -7.72692 | 35330 ft | 396 kts | 213° |
| 2026-04-15 09:23 | 41.16661 | -7.76212 | 35325 ft | 396 kts | 213° |
| 2026-04-15 09:24 | 41.11825 | -7.79730 | 35339 ft | 396 kts | 213° |
| 2026-04-15 09:24 | 41.06986 | -7.83239 | 35317 ft | 398 kts | 213° |
| 2026-04-15 09:25 | 41.02105 | -7.86775 | 35334 ft | 399 kts | 213° |
| 2026-04-15 09:25 | 40.97237 | -7.90294 | 35338 ft | 399 kts | 213° |
| 2026-04-15 09:26 | 40.92365 | -7.93811 | 35332 ft | 399 kts | 213° |
| 2026-04-15 09:26 | 40.87497 | -7.97317 | 35326 ft | 398 kts | 213° |
| 2026-04-15 09:27 | 40.82625 | -8.00826 | 35329 ft | 400 kts | 213° |
| 2026-04-15 09:27 | 40.77732 | -8.04340 | 35335 ft | 401 kts | 213° |
| 2026-04-15 09:28 | 40.72835 | -8.07846 | 35339 ft | 400 kts | 213° |
| 2026-04-15 09:28 | 40.67938 | -8.11351 | 35343 ft | 400 kts | 213° |
| 2026-04-15 09:29 | 40.63044 | -8.14850 | 35340 ft | 400 kts | 213° |
| 2026-04-15 09:29 | 40.58120 | -8.18360 | 35339 ft | 404 kts | 213° |
| 2026-04-15 09:30 | 40.53182 | -8.21875 | 35340 ft | 404 kts | 213° |
| 2026-04-15 09:30 | 40.48236 | -8.25387 | 35340 ft | 403 kts | 213° |
| 2026-04-15 09:31 | 40.43305 | -8.28888 | 35338 ft | 403 kts | 213° |
| 2026-04-15 09:31 | 40.38373 | -8.32390 | 35344 ft | 403 kts | 213° |
| 2026-04-15 09:32 | 40.33437 | -8.35881 | 35349 ft | 402 kts | 213° |
| 2026-04-15 09:32 | 40.28523 | -8.39349 | 35343 ft | 401 kts | 213° |
| 2026-04-15 09:33 | 40.23612 | -8.42810 | 35337 ft | 401 kts | 213° |
| 2026-04-15 09:33 | 40.18694 | -8.46268 | 35334 ft | 401 kts | 213° |
| 2026-04-15 09:34 | 40.13769 | -8.49727 | 35326 ft | 403 kts | 212° |
| 2026-04-15 09:34 | 40.08820 | -8.53202 | 35332 ft | 404 kts | 212° |
| 2026-04-15 09:35 | 40.03891 | -8.56642 | 35328 ft | 397 kts | 212° |
| 2026-04-15 09:35 | 39.99113 | -8.59978 | 34949 ft | 382 kts | 213° |
| 2026-04-15 09:36 | 39.96774 | -8.61611 | 34399 ft | 380 kts | 212° |
| 2026-04-15 09:36 | 39.94443 | -8.63239 | 33749 ft | 380 kts | 212° |
| 2026-04-15 09:36 | 39.92112 | -8.64867 | 32979 ft | 381 kts | 212° |
| 2026-04-15 09:36 | 39.89772 | -8.66504 | 32222 ft | 383 kts | 212° |
| 2026-04-15 09:37 | 39.87415 | -8.68143 | 31473 ft | 385 kts | 212° |
| 2026-04-15 09:37 | 39.85045 | -8.69786 | 30737 ft | 387 kts | 212° |
| 2026-04-15 09:37 | 39.82670 | -8.71428 | 30212 ft | 383 kts | 212° |
| 2026-04-15 09:37 | 39.80345 | -8.73039 | 29754 ft | 376 kts | 212° |
| 2026-04-15 09:38 | 39.78055 | -8.74627 | 29244 ft | 370 kts | 212° |
| 2026-04-15 09:38 | 39.75797 | -8.76192 | 28724 ft | 366 kts | 212° |
| 2026-04-15 09:38 | 39.73563 | -8.77741 | 28215 ft | 362 kts | 212° |
| 2026-04-15 09:38 | 39.71354 | -8.79271 | 27722 ft | 358 kts | 212° |
| 2026-04-15 09:39 | 39.69169 | -8.80783 | 27218 ft | 354 kts | 212° |
| 2026-04-15 09:39 | 39.67005 | -8.82282 | 26754 ft | 351 kts | 212° |
| 2026-04-15 09:39 | 39.64860 | -8.83765 | 26294 ft | 348 kts | 212° |
| 2026-04-15 09:39 | 39.62731 | -8.85235 | 25848 ft | 346 kts | 213° |
| 2026-04-15 09:40 | 39.60606 | -8.86701 | 25417 ft | 345 kts | 213° |
| 2026-04-15 09:40 | 39.58487 | -8.88162 | 24995 ft | 345 kts | 213° |
| 2026-04-15 09:40 | 39.56375 | -8.89618 | 24571 ft | 343 kts | 213° |
| 2026-04-15 09:40 | 39.54269 | -8.91070 | 24155 ft | 342 kts | 213° |
| 2026-04-15 09:41 | 39.52169 | -8.92516 | 23720 ft | 342 kts | 213° |
| 2026-04-15 09:41 | 39.50077 | -8.93956 | 23233 ft | 339 kts | 213° |
| 2026-04-15 09:41 | 39.48002 | -8.95382 | 22757 ft | 336 kts | 213° |
| 2026-04-15 09:41 | 39.45945 | -8.96795 | 22289 ft | 334 kts | 212° |
| 2026-04-15 09:42 | 39.43896 | -8.98204 | 21835 ft | 333 kts | 212° |
| 2026-04-15 09:42 | 39.41851 | -8.99607 | 21388 ft | 332 kts | 212° |
| 2026-04-15 09:42 | 39.39812 | -9.01003 | 20952 ft | 331 kts | 212° |
| 2026-04-15 09:42 | 39.37782 | -9.02393 | 20523 ft | 329 kts | 212° |
| 2026-04-15 09:43 | 39.35761 | -9.03778 | 20102 ft | 328 kts | 212° |
| 2026-04-15 09:43 | 39.33746 | -9.05157 | 19689 ft | 327 kts | 211° |
| 2026-04-15 09:43 | 39.31736 | -9.06526 | 19282 ft | 326 kts | 211° |
| 2026-04-15 09:43 | 39.29733 | -9.07891 | 18884 ft | 325 kts | 211° |
| 2026-04-15 09:44 | 39.27739 | -9.09259 | 18478 ft | 324 kts | 211° |
| 2026-04-15 09:44 | 39.25750 | -9.10622 | 18025 ft | 323 kts | 211° |
| 2026-04-15 09:44 | 39.23770 | -9.11976 | 17580 ft | 321 kts | 211° |
| 2026-04-15 09:44 | 39.22467 | -9.12864 | 17292 ft | 320 kts | 211° |
| 2026-04-15 09:45 | 39.20505 | -9.14202 | 16855 ft | 318 kts | 211° |
| 2026-04-15 09:45 | 39.18553 | -9.15531 | 16435 ft | 316 kts | 211° |
| 2026-04-15 09:45 | 39.16610 | -9.16853 | 16028 ft | 315 kts | 211° |
| 2026-04-15 09:45 | 39.14679 | -9.18165 | 15621 ft | 313 kts | 211° |
| 2026-04-15 09:46 | 39.12760 | -9.19468 | 15218 ft | 310 kts | 211° |
| 2026-04-15 09:46 | 39.10859 | -9.20760 | 14826 ft | 308 kts | 211° |
| 2026-04-15 09:46 | 39.08971 | -9.22042 | 14451 ft | 306 kts | 211° |
| 2026-04-15 09:46 | 39.07093 | -9.23313 | 14066 ft | 304 kts | 211° |
| 2026-04-15 09:47 | 39.05231 | -9.24573 | 13650 ft | 301 kts | 211° |
| 2026-04-15 09:47 | 39.03382 | -9.25824 | 13238 ft | 299 kts | 211° |
| 2026-04-15 09:47 | 39.01548 | -9.27066 | 12835 ft | 297 kts | 211° |
| 2026-04-15 09:47 | 38.99726 | -9.28300 | 12440 ft | 295 kts | 211° |
| 2026-04-15 09:48 | 38.97915 | -9.29526 | 12048 ft | 293 kts | 211° |
| 2026-04-15 09:48 | 38.96011 | -9.30444 | 11644 ft | 294 kts | 193° |
| 2026-04-15 09:48 | 38.93976 | -9.30669 | 11208 ft | 294 kts | 184° |
| 2026-04-15 09:48 | 38.91940 | -9.30666 | 10792 ft | 291 kts | 183° |
| 2026-04-15 09:49 | 38.89912 | -9.30660 | 10388 ft | 292 kts | 183° |
| 2026-04-15 09:49 | 38.87878 | -9.30674 | 9948 ft | 292 kts | 183° |
| 2026-04-15 09:49 | 38.85850 | -9.30702 | 9452 ft | 290 kts | 184° |
| 2026-04-15 09:49 | 38.83840 | -9.30738 | 9009 ft | 287 kts | 184° |
| 2026-04-15 09:50 | 38.81858 | -9.30780 | 8608 ft | 282 kts | 184° |
| 2026-04-15 09:50 | 38.79912 | -9.30828 | 8236 ft | 277 kts | 183° |
| 2026-04-15 09:50 | 38.78003 | -9.30877 | 7877 ft | 272 kts | 183° |
| 2026-04-15 09:50 | 38.76125 | -9.30924 | 7526 ft | 267 kts | 183° |
| 2026-04-15 09:51 | 38.74284 | -9.30969 | 7198 ft | 263 kts | 182° |
| 2026-04-15 09:51 | 38.72473 | -9.31012 | 6886 ft | 258 kts | 182° |
| 2026-04-15 09:51 | 38.70698 | -9.31056 | 6582 ft | 254 kts | 182° |
| 2026-04-15 09:51 | 38.68944 | -9.31109 | 6265 ft | 250 kts | 183° |
| 2026-04-15 09:52 | 38.67212 | -9.31162 | 5950 ft | 247 kts | 182° |
| 2026-04-15 09:52 | 38.65511 | -9.31209 | 5631 ft | 242 kts | 182° |
| 2026-04-15 09:52 | 38.63843 | -9.31252 | 5334 ft | 238 kts | 182° |
| 2026-04-15 09:52 | 38.62206 | -9.31295 | 5041 ft | 233 kts | 182° |
| 2026-04-15 09:53 | 38.60602 | -9.31335 | 4743 ft | 228 kts | 182° |
| 2026-04-15 09:53 | 38.59042 | -9.31185 | 4432 ft | 223 kts | 160° |
| 2026-04-15 09:53 | 38.57866 | -9.30059 | 4195 ft | 208 kts | 121° |
| 2026-04-15 09:53 | 38.57593 | -9.28356 | 3986 ft | 192 kts | 76° |
| 2026-04-15 09:54 | 38.58062 | -9.26782 | 3962 ft | 189 kts | 63° |
| 2026-04-15 09:54 | 38.58648 | -9.25279 | 3967 ft | 189 kts | 62° |
| 2026-04-15 09:54 | 38.59443 | -9.23972 | 3923 ft | 187 kts | 39° |
| 2026-04-15 09:54 | 38.60522 | -9.23066 | 3782 ft | 185 kts | 27° |
| 2026-04-15 09:55 | 38.61676 | -9.22364 | 3579 ft | 183 kts | 21° |
| 2026-04-15 09:55 | 38.62848 | -9.21747 | 3330 ft | 182 kts | 22° |
| 2026-04-15 09:55 | 38.64011 | -9.21128 | 3085 ft | 180 kts | 21° |
| 2026-04-15 09:55 | 38.65166 | -9.20513 | 2836 ft | 179 kts | 21° |
| 2026-04-15 09:56 | 38.66315 | -9.19900 | 2580 ft | 178 kts | 21° |
| 2026-04-15 09:56 | 38.67454 | -9.19292 | 2366 ft | 176 kts | 21° |
| 2026-04-15 09:56 | 38.69598 | -9.18148 | 1915 ft | 155 kts | 21° |
| 2026-04-15 09:57 | 38.70573 | -9.17628 | 1707 ft | 153 kts | 21° |
| 2026-04-15 09:57 | 38.71567 | -9.17097 | 1494 ft | 148 kts | 21° |
| 2026-04-15 09:57 | 38.72451 | -9.16625 | 1298 ft | 137 kts | 21° |
| 2026-04-15 09:57 | 38.73330 | -9.16156 | 1103 ft | 137 kts | 21° |
| 2026-04-15 09:58 | 38.74207 | -9.15687 | 913 ft | 137 kts | 21° |
| 2026-04-15 09:58 | 38.75084 | -9.15219 | 728 ft | 137 kts | 21° |
| 2026-04-15 09:58 | 38.75959 | -9.14755 | 543 ft | 136 kts | 21° |
| 2026-04-15 09:58 | 38.76830 | -9.14284 | 368 ft | 134 kts | 21° |
| 2026-04-15 09:59 | 38.77534 | -9.13912 | 369 ft | 71 kts | 23° |
| 2026-04-15 09:59 | 38.77887 | -9.13723 | 370 ft | 45 kts | 21° |
| 2026-04-15 09:59 | 38.78129 | -9.13593 | 372 ft | 27 kts | 23° |
| 2026-04-15 09:59 | 38.78266 | -9.13490 | 373 ft | 19 kts | 41° |
| 2026-04-15 10:00 | 38.78346 | -9.13387 | 372 ft | 11 kts | 47° |
| 2026-04-15 10:00 | 38.78377 | -9.13306 | 368 ft | 11 kts | 102° |
| 2026-04-15 10:00 | 38.78331 | -9.13265 | 365 ft | 7 kts | 184° |
| 2026-04-15 10:00 | 38.78284 | -9.13283 | 368 ft | 4 kts | 201° |
| 2026-04-15 10:01 | 38.78252 | -9.13300 | 364 ft | 6 kts | 202° |
| 2026-04-15 10:01 | 38.78212 | -9.13321 | 367 ft | 7 kts | 202° |
| 2026-04-15 10:01 | 38.78162 | -9.13347 | 363 ft | 8 kts | 202° |
| 2026-04-15 10:01 | 38.78102 | -9.13379 | 365 ft | 10 kts | 202° |
| 2026-04-15 10:02 | 38.78032 | -9.13413 | 363 ft | 12 kts | 188° |
| 2026-04-15 10:02 | 38.77949 | -9.13397 | 358 ft | 12 kts | 168° |
| 2026-04-15 10:02 | 38.77862 | -9.13373 | 354 ft | 12 kts | 168° |
| 2026-04-15 10:02 | 38.77787 | -9.13353 | 355 ft | 11 kts | 168° |
| 2026-04-15 10:03 | 38.77715 | -9.13333 | 345 ft | 10 kts | 168° |
| 2026-04-15 10:03 | 38.77649 | -9.13322 | 343 ft | 9 kts | 180° |
| 2026-04-15 10:03 | 38.77601 | -9.13320 | 343 ft | 7 kts | 163° |
| 2026-04-15 10:03 | 38.77598 | -9.13262 | 345 ft | 6 kts | 76° |
| 2026-04-15 10:04 | 38.77605 | -9.13222 | 343 ft | 3 kts | 78° |
| 2026-04-15 10:04 | 38.77609 | -9.13201 | 353 ft | 1 kts | 78° |
| 2026-04-15 10:04 | 38.77610 | -9.13193 | 343 ft | 0 kts | 78° |